Airfield :
LOGIN :

Register | Disclaimer

   EN    FR    IT 

 










Legend :    VFR   Marginal VFR   IFR   Intensive IFR   Very Intensive IFR
Visi :
Ceiling :
>= 8 km
>= 3000ft
5 to 8 km
1000 to 3000 ft
1500m to 5 km
500 to 1000 ft
800 to 1500m
200 to 500 ft
< 800m
< 200 ft
Symbols :   Thunderstorms  Fog  Heavy snow  Heavy precipitations  Wind > 20 kt
SIGMETs :     Misc.  Thunderstorms  Icing  Turbulence  Mountain Waves  Volcanic Ashes







- Airport Elevation : 1345 ft
- IATA code : FRZ


ETHF - Fritzlar

CURRENT METAR :
  • 141751Z 22009KT 9999 -RASN SCT018 BKN030 03/01 Q0993 BLU

EXPIRED METARs :
  • 141720Z 22008KT 9999 FEW018 BKN033 02/00 Q0993 BLU
  • 141620Z 21007KT 9999 SCT015 02/00 Q0993 BLU+
  • 141533Z 22008KT 9999 FEW015 BKN020 03/01 Q0993 WHT

TAF TAF ETHF
Valid from the 14 at 15:00 until the 15 at 00:00 UTC


141403Z 1415/1424 22012KT 9999 NSW FEW020 BKN030
TEMPO 1415/1424 25015G25KT 3000 SHSNRA BKN012CB CANCEL 1500
No reported NOTAMs for that airfield.
1 SIGMET reported for the Langen FIR (EDGG) :
 
Severe turbulence
EDGG SIGMET 3 VALID 141744/141930 EDZF
EDGG LANGEN FIR SEV TURB OBS S OF N4840 FL180/240 STNR NC=



MET'MAP, your aeronautical weather chart ! - Copyright ORBIFLY December 2007 - Disclaimer

ORBIFLY MET'MAP TEAM :

Programming & Development : Alexandra Zaïnal
Concept & Development : Baudouin d'Aumeries
Co-Development & Prog : Marc-Olivier Méhu
Technical & hardware support : Manuel Goepfert

Contact : metmap@orbifly.com




SOURCES & CREDITS :

   NOAA